sensor_id;sensor_type;location;lat;lon;timestamp;pressure;altitude;pressure_sealevel;temperature;humidity
37852;BME280;23691;52.486;4.650;2023-03-23T00:01:03;100038.31;;;11.85;92.71
37852;BME280;23691;52.486;4.650;2023-03-23T00:03:28;100029.91;;;11.88;92.69
37852;BME280;23691;52.486;4.650;2023-03-23T00:05:59;100028.06;;;11.89;92.52
37852;BME280;23691;52.486;4.650;2023-03-23T00:08:31;100027.22;;;11.88;92.46
37852;BME280;23691;52.486;4.650;2023-03-23T00:10:56;100029.56;;;11.91;92.34
37852;BME280;23691;52.486;4.650;2023-03-23T00:13:25;100018.44;;;11.94;92.23
37852;BME280;23691;52.486;4.650;2023-03-23T00:15:51;100027.31;;;11.95;92.09
37852;BME280;23691;52.486;4.650;2023-03-23T00:18:22;100012.84;;;11.96;92.03
37852;BME280;23691;52.486;4.650;2023-03-23T00:20:50;100005.47;;;11.98;92.21
37852;BME280;23691;52.486;4.650;2023-03-23T00:23:20;100017.66;;;12.00;92.15
37852;BME280;23691;52.486;4.650;2023-03-23T00:25:49;100012.50;;;11.99;91.81
37852;BME280;23691;52.486;4.650;2023-03-23T00:28:16;100005.28;;;11.99;91.92
37852;BME280;23691;52.486;4.650;2023-03-23T00:30:42;100006.09;;;12.00;91.66
37852;BME280;23691;52.486;4.650;2023-03-23T00:33:10;100004.88;;;12.02;91.86
37852;BME280;23691;52.486;4.650;2023-03-23T00:35:38;100009.59;;;12.00;91.32
37852;BME280;23691;52.486;4.650;2023-03-23T00:38:04;100006.75;;;12.02;91.33
37852;BME280;23691;52.486;4.650;2023-03-23T00:40:29;100009.19;;;11.97;90.87
37852;BME280;23691;52.486;4.650;2023-03-23T00:42:55;100000.50;;;11.95;90.82
37852;BME280;23691;52.486;4.650;2023-03-23T00:45:21;99992.38;;;11.88;90.67
37852;BME280;23691;52.486;4.650;2023-03-23T00:47:46;99981.00;;;11.86;90.37
37852;BME280;23691;52.486;4.650;2023-03-23T00:50:16;99981.66;;;11.88;90.56
37852;BME280;23691;52.486;4.650;2023-03-23T00:52:43;99983.34;;;11.89;90.23
37852;BME280;23691;52.486;4.650;2023-03-23T00:55:09;99985.63;;;11.92;90.01
37852;BME280;23691;52.486;4.650;2023-03-23T00:57:34;99978.22;;;11.94;90.16
37852;BME280;23691;52.486;4.650;2023-03-23T01:00:00;99968.16;;;11.96;89.66
37852;BME280;23691;52.486;4.650;2023-03-23T01:02:25;99966.06;;;11.98;89.51
37852;BME280;23691;52.486;4.650;2023-03-23T01:04:51;99952.47;;;12.00;89.25
37852;BME280;23691;52.486;4.650;2023-03-23T01:07:20;99948.59;;;12.02;89.37
37852;BME280;23691;52.486;4.650;2023-03-23T01:09:47;99959.75;;;12.06;89.06
37852;BME280;23691;52.486;4.650;2023-03-23T01:12:13;99950.69;;;12.07;88.75
37852;BME280;23691;52.486;4.650;2023-03-23T01:14:40;99962.03;;;12.09;88.66
37852;BME280;23691;52.486;4.650;2023-03-23T01:17:06;99969.25;;;12.09;88.56
37852;BME280;23691;52.486;4.650;2023-03-23T01:19:31;99965.94;;;12.07;88.07
37852;BME280;23691;52.486;4.650;2023-03-23T01:21:56;99955.00;;;12.08;87.85
37852;BME280;23691;52.486;4.650;2023-03-23T01:24:22;99951.31;;;12.09;87.63
37852;BME280;23691;52.486;4.650;2023-03-23T01:26:47;99951.97;;;12.11;87.80
37852;BME280;23691;52.486;4.650;2023-03-23T01:29:12;99957.31;;;12.11;87.38
37852;BME280;23691;52.486;4.650;2023-03-23T01:31:41;99943.69;;;12.13;87.74
37852;BME280;23691;52.486;4.650;2023-03-23T01:34:08;99945.38;;;12.14;87.27
37852;BME280;23691;52.486;4.650;2023-03-23T01:36:35;99946.19;;;12.14;87.42
37852;BME280;23691;52.486;4.650;2023-03-23T01:39:04;99938.78;;;12.16;87.03
37852;BME280;23691;52.486;4.650;2023-03-23T01:41:29;99929.28;;;12.14;86.80
37852;BME280;23691;52.486;4.650;2023-03-23T01:43:57;99932.16;;;12.12;86.73
37852;BME280;23691;52.486;4.650;2023-03-23T01:46:27;99928.84;;;12.10;86.66
37852;BME280;23691;52.486;4.650;2023-03-23T01:48:53;99924.69;;;12.08;86.67
37852;BME280;23691;52.486;4.650;2023-03-23T01:51:20;99929.88;;;12.09;86.51
37852;BME280;23691;52.486;4.650;2023-03-23T01:53:49;99923.47;;;12.10;86.32
37852;BME280;23691;52.486;4.650;2023-03-23T01:56:20;99902.84;;;12.11;86.33
37852;BME280;23691;52.486;4.650;2023-03-23T01:58:50;99909.06;;;12.11;86.04
37852;BME280;23691;52.486;4.650;2023-03-23T02:01:16;99911.53;;;12.13;86.18
37852;BME280;23691;52.486;4.650;2023-03-23T02:03:42;99919.56;;;12.13;86.13
37852;BME280;23691;52.486;4.650;2023-03-23T02:06:09;99921.44;;;12.12;86.35
37852;BME280;23691;52.486;4.650;2023-03-23T02:08:35;99914.59;;;12.10;86.43
37852;BME280;23691;52.486;4.650;2023-03-23T02:11:01;99919.31;;;12.08;86.74
37852;BME280;23691;52.486;4.650;2023-03-23T02:13:27;99920.56;;;12.05;86.81
37852;BME280;23691;52.486;4.650;2023-03-23T02:18:22;99905.88;;;12.01;87.05
37852;BME280;23691;52.486;4.650;2023-03-23T02:21:19;99904.22;;;12.00;87.43
37852;BME280;23691;52.486;4.650;2023-03-23T02:31:45;99891.00;;;11.92;88.47
37852;BME280;23691;52.486;4.650;2023-03-23T02:34:18;99890.53;;;11.88;88.82
37852;BME280;23691;52.486;4.650;2023-03-23T02:37:03;99889.88;;;11.86;89.21
37852;BME280;23691;52.486;4.650;2023-03-23T02:39:44;99883.06;;;11.83;89.50
37852;BME280;23691;52.486;4.650;2023-03-23T02:42:13;99891.09;;;11.83;89.66
37852;BME280;23691;52.486;4.650;2023-03-23T02:44:43;99905.34;;;11.84;89.78
37852;BME280;23691;52.486;4.650;2023-03-23T02:47:19;99903.28;;;11.86;89.92
37852;BME280;23691;52.486;4.650;2023-03-23T02:49:48;99907.81;;;11.86;89.72
37852;BME280;23691;52.486;4.650;2023-03-23T02:52:21;99907.00;;;11.85;89.80
37852;BME280;23691;52.486;4.650;2023-03-23T02:54:49;99913.03;;;11.87;89.78
37852;BME280;23691;52.486;4.650;2023-03-23T02:57:16;99910.50;;;11.86;89.97
37852;BME280;23691;52.486;4.650;2023-03-23T02:59:42;99919.34;;;11.86;89.78
37852;BME280;23691;52.486;4.650;2023-03-23T03:02:27;99910.13;;;11.89;89.68
37852;BME280;23691;52.486;4.650;2023-03-23T03:07:35;99912.34;;;11.85;89.63
37852;BME280;23691;52.486;4.650;2023-03-23T03:10:08;99936.22;;;11.80;89.64
37852;BME280;23691;52.486;4.650;2023-03-23T03:12:53;99925.09;;;11.76;89.44
37852;BME280;23691;52.486;4.650;2023-03-23T03:15:27;99929.34;;;11.71;89.53
37852;BME280;23691;52.486;4.650;2023-03-23T03:18:06;99915.94;;;11.71;89.30
37852;BME280;23691;52.486;4.650;2023-03-23T03:20:44;99912.03;;;11.67;89.32
37852;BME280;23691;52.486;4.650;2023-03-23T03:23:11;99916.53;;;11.66;89.60
37852;BME280;23691;52.486;4.650;2023-03-23T03:25:40;99929.50;;;11.63;89.42
37852;BME280;23691;52.486;4.650;2023-03-23T03:28:08;99932.56;;;11.59;89.55
37852;BME280;23691;52.486;4.650;2023-03-23T03:30:35;99932.94;;;11.56;89.39
37852;BME280;23691;52.486;4.650;2023-03-23T03:33:04;99924.47;;;11.53;90.02
37852;BME280;23691;52.486;4.650;2023-03-23T03:35:30;99915.97;;;11.49;89.71
37852;BME280;23691;52.486;4.650;2023-03-23T03:37:57;99929.56;;;11.48;89.69
37852;BME280;23691;52.486;4.650;2023-03-23T03:40:23;99924.63;;;11.45;89.62
37852;BME280;23691;52.486;4.650;2023-03-23T03:42:49;99927.66;;;11.42;89.33
37852;BME280;23691;52.486;4.650;2023-03-23T03:45:19;99924.09;;;11.34;88.90
37852;BME280;23691;52.486;4.650;2023-03-23T03:47:46;99936.84;;;11.32;88.59
37852;BME280;23691;52.486;4.650;2023-03-23T03:50:11;99952.47;;;11.29;88.41
37852;BME280;23691;52.486;4.650;2023-03-23T03:52:38;99946.69;;;11.25;88.25
37852;BME280;23691;52.486;4.650;2023-03-23T03:55:04;99931.63;;;11.24;88.18
37852;BME280;23691;52.486;4.650;2023-03-23T03:57:30;99929.97;;;11.23;87.71
37852;BME280;23691;52.486;4.650;2023-03-23T03:59:56;99933.66;;;11.22;87.71
37852;BME280;23691;52.486;4.650;2023-03-23T04:02:21;99933.84;;;11.21;87.43
37852;BME280;23691;52.486;4.650;2023-03-23T04:04:47;99943.75;;;11.20;87.25
37852;BME280;23691;52.486;4.650;2023-03-23T04:07:14;99938.38;;;11.20;87.33
37852;BME280;23691;52.486;4.650;2023-03-23T04:09:44;99929.50;;;11.20;87.19
37852;BME280;23691;52.486;4.650;2023-03-23T04:12:12;99948.44;;;11.18;87.26
37852;BME280;23691;52.486;4.650;2023-03-23T04:14:37;99942.28;;;11.17;86.93
37852;BME280;23691;52.486;4.650;2023-03-23T04:17:03;99952.97;;;11.17;86.98
37852;BME280;23691;52.486;4.650;2023-03-23T04:19:28;99947.81;;;11.16;86.95
37852;BME280;23691;52.486;4.650;2023-03-23T04:21:58;99954.75;;;11.10;87.03
37852;BME280;23691;52.486;4.650;2023-03-23T04:24:24;99959.47;;;11.08;87.30
37852;BME280;23691;52.486;4.650;2023-03-23T04:26:49;99970.34;;;11.07;87.35
37852;BME280;23691;52.486;4.650;2023-03-23T04:29:17;99974.25;;;11.04;87.49
37852;BME280;23691;52.486;4.650;2023-03-23T04:31:43;99969.91;;;11.03;87.45
37852;BME280;23691;52.486;4.650;2023-03-23T04:34:11;99970.91;;;11.02;87.44
37852;BME280;23691;52.486;4.650;2023-03-23T04:36:38;99962.28;;;11.00;87.67
37852;BME280;23691;52.486;4.650;2023-03-23T04:39:03;99964.31;;;10.98;87.88
37852;BME280;23691;52.486;4.650;2023-03-23T04:41:32;99966.34;;;10.96;88.06
37852;BME280;23691;52.486;4.650;2023-03-23T04:43:57;99975.75;;;10.92;88.35
37852;BME280;23691;52.486;4.650;2023-03-23T04:46:29;99979.63;;;10.89;88.69
37852;BME280;23691;52.486;4.650;2023-03-23T04:48:55;99973.44;;;10.89;88.64
37852;BME280;23691;52.486;4.650;2023-03-23T04:51:20;99995.69;;;10.89;88.88
37852;BME280;23691;52.486;4.650;2023-03-23T04:53:46;100000.22;;;10.89;88.62
37852;BME280;23691;52.486;4.650;2023-03-23T04:56:11;99998.91;;;10.85;88.81
37852;BME280;23691;52.486;4.650;2023-03-23T04:58:39;100003.44;;;10.84;88.66
37852;BME280;23691;52.486;4.650;2023-03-23T05:01:04;99987.56;;;10.83;88.69
37852;BME280;23691;52.486;4.650;2023-03-23T05:03:30;99979.34;;;10.84;88.64
37852;BME280;23691;52.486;4.650;2023-03-23T05:05:55;99986.56;;;10.84;88.27
37852;BME280;23691;52.486;4.650;2023-03-23T05:08:22;99984.88;;;10.83;88.02
37852;BME280;23691;52.486;4.650;2023-03-23T05:10:52;99997.00;;;10.79;87.78
37852;BME280;23691;52.486;4.650;2023-03-23T05:13:18;99995.53;;;10.76;88.17
37852;BME280;23691;52.486;4.650;2023-03-23T05:15:43;100002.91;;;10.74;87.83
37852;BME280;23691;52.486;4.650;2023-03-23T05:18:09;100004.75;;;10.73;87.87
37852;BME280;23691;52.486;4.650;2023-03-23T05:20:36;100004.09;;;10.71;87.74
37852;BME280;23691;52.486;4.650;2023-03-23T05:23:01;100008.97;;;10.68;87.46
37852;BME280;23691;52.486;4.650;2023-03-23T05:25:27;100010.00;;;10.67;87.71
37852;BME280;23691;52.486;4.650;2023-03-23T05:27:52;100012.69;;;10.67;87.69
37852;BME280;23691;52.486;4.650;2023-03-23T05:30:20;100008.72;;;10.63;87.38
37852;BME280;23691;52.486;4.650;2023-03-23T05:32:46;100020.63;;;10.60;87.54
37852;BME280;23691;52.486;4.650;2023-03-23T05:35:16;100009.25;;;10.58;87.70
37852;BME280;23691;52.486;4.650;2023-03-23T05:37:42;100013.63;;;10.59;87.34
37852;BME280;23691;52.486;4.650;2023-03-23T05:40:09;100021.16;;;10.56;87.73
37852;BME280;23691;52.486;4.650;2023-03-23T05:42:37;100017.66;;;10.55;87.64
37852;BME280;23691;52.486;4.650;2023-03-23T05:45:03;100033.06;;;10.53;87.31
37852;BME280;23691;52.486;4.650;2023-03-23T05:47:29;100027.09;;;10.51;87.39
37852;BME280;23691;52.486;4.650;2023-03-23T05:49:55;100036.94;;;10.50;87.30
37852;BME280;23691;52.486;4.650;2023-03-23T05:52:20;100044.78;;;10.52;87.49
37852;BME280;23691;52.486;4.650;2023-03-23T05:54:46;100045.44;;;10.54;87.29
37852;BME280;23691;52.486;4.650;2023-03-23T05:57:12;100041.28;;;10.51;87.58
37852;BME280;23691;52.486;4.650;2023-03-23T05:59:37;100044.13;;;10.50;87.47
37852;BME280;23691;52.486;4.650;2023-03-23T06:02:03;100050.50;;;10.49;87.81
37852;BME280;23691;52.486;4.650;2023-03-23T06:04:29;100043.31;;;10.49;87.52
37852;BME280;23691;52.486;4.650;2023-03-23T06:06:54;100047.63;;;10.50;87.46
37852;BME280;23691;52.486;4.650;2023-03-23T06:09:20;100055.66;;;10.50;87.68
37852;BME280;23691;52.486;4.650;2023-03-23T06:11:46;100057.50;;;10.50;87.76
37852;BME280;23691;52.486;4.650;2023-03-23T06:14:13;100061.66;;;10.52;87.81
37852;BME280;23691;52.486;4.650;2023-03-23T06:16:38;100071.97;;;10.56;87.75
37852;BME280;23691;52.486;4.650;2023-03-23T06:19:04;100069.97;;;10.58;87.61
37852;BME280;23691;52.486;4.650;2023-03-23T06:21:30;100062.31;;;10.55;87.83
37852;BME280;23691;52.486;4.650;2023-03-23T06:23:56;100069.69;;;10.52;87.72
37852;BME280;23691;52.486;4.650;2023-03-23T06:26:30;100078.34;;;10.55;87.95
37852;BME280;23691;52.486;4.650;2023-03-23T06:28:57;100074.84;;;10.54;87.93
37852;BME280;23691;52.486;4.650;2023-03-23T06:31:24;100090.72;;;10.56;87.81
37852;BME280;23691;52.486;4.650;2023-03-23T06:33:50;100094.03;;;10.58;87.83
37852;BME280;23691;52.486;4.650;2023-03-23T06:36:16;100101.69;;;10.61;87.62
37852;BME280;23691;52.486;4.650;2023-03-23T06:38:42;100090.97;;;10.61;87.56
37852;BME280;23691;52.486;4.650;2023-03-23T06:41:07;100096.34;;;10.61;87.50
37852;BME280;23691;52.486;4.650;2023-03-23T06:43:33;100105.22;;;10.61;87.47
37852;BME280;23691;52.486;4.650;2023-03-23T06:46:00;100104.34;;;10.61;87.62
37852;BME280;23691;52.486;4.650;2023-03-23T06:48:45;100100.59;;;10.70;87.49
37852;BME280;23691;52.486;4.650;2023-03-23T06:51:14;100097.84;;;10.78;87.41
37852;BME280;23691;52.486;4.650;2023-03-23T06:53:39;100098.47;;;10.80;87.40
37852;BME280;23691;52.486;4.650;2023-03-23T06:56:05;100095.44;;;10.83;87.05
37852;BME280;23691;52.486;4.650;2023-03-23T06:58:32;100104.09;;;10.85;87.11
37852;BME280;23691;52.486;4.650;2023-03-23T07:00:57;100111.78;;;10.88;87.27
37852;BME280;23691;52.486;4.650;2023-03-23T07:03:23;100108.91;;;10.90;87.15
37852;BME280;23691;52.486;4.650;2023-03-23T07:05:49;100114.25;;;10.90;86.91
37852;BME280;23691;52.486;4.650;2023-03-23T07:08:15;100118.78;;;10.89;86.95
37852;BME280;23691;52.486;4.650;2023-03-23T07:10:41;100120.25;;;10.92;86.70
37852;BME280;23691;52.486;4.650;2023-03-23T07:13:06;100117.41;;;10.93;86.69
37852;BME280;23691;52.486;4.650;2023-03-23T07:15:32;100115.00;;;10.99;86.73
37852;BME280;23691;52.486;4.650;2023-03-23T07:17:57;100121.00;;;11.01;86.26
37852;BME280;23691;52.486;4.650;2023-03-23T07:20:23;100130.91;;;11.00;86.35
37852;BME280;23691;52.486;4.650;2023-03-23T07:22:48;100124.13;;;11.04;86.25
37852;BME280;23691;52.486;4.650;2023-03-23T07:25:14;100130.91;;;11.00;86.12
37852;BME280;23691;52.486;4.650;2023-03-23T07:27:40;100127.75;;;10.96;85.85
37852;BME280;23691;52.486;4.650;2023-03-23T07:30:06;100121.28;;;10.91;86.13
37852;BME280;23691;52.486;4.650;2023-03-23T07:32:32;100121.00;;;10.86;86.27
37852;BME280;23691;52.486;4.650;2023-03-23T07:34:58;100122.84;;;10.85;85.95
37852;BME280;23691;52.486;4.650;2023-03-23T07:37:23;100137.53;;;10.89;85.41
37852;BME280;23691;52.486;4.650;2023-03-23T07:39:49;100126.44;;;10.92;85.62
37852;BME280;23691;52.486;4.650;2023-03-23T07:42:14;100132.44;;;10.94;85.53
37852;BME280;23691;52.486;4.650;2023-03-23T07:44:39;100131.25;;;10.97;85.74
37852;BME280;23691;52.486;4.650;2023-03-23T07:47:05;100129.03;;;11.01;85.73
37852;BME280;23691;52.486;4.650;2023-03-23T07:49:30;100137.53;;;11.04;85.32
37852;BME280;23691;52.486;4.650;2023-03-23T07:51:56;100138.63;;;11.10;85.37
37852;BME280;23691;52.486;4.650;2023-03-23T07:54:23;100129.22;;;11.14;84.87
37852;BME280;23691;52.486;4.650;2023-03-23T07:56:48;100138.16;;;11.21;84.91
37852;BME280;23691;52.486;4.650;2023-03-23T07:59:14;100140.03;;;11.21;84.45
37852;BME280;23691;52.486;4.650;2023-03-23T08:01:40;100153.50;;;11.27;84.61
37852;BME280;23691;52.486;4.650;2023-03-23T08:04:06;100151.53;;;11.36;84.37
37852;BME280;23691;52.486;4.650;2023-03-23T08:06:34;100148.97;;;11.43;83.87
37852;BME280;23691;52.486;4.650;2023-03-23T08:09:00;100143.03;;;11.47;83.97
37852;BME280;23691;52.486;4.650;2023-03-23T08:11:26;100146.34;;;11.49;83.34
37852;BME280;23691;52.486;4.650;2023-03-23T08:13:52;100150.31;;;11.53;82.91
37852;BME280;23691;52.486;4.650;2023-03-23T08:16:18;100156.97;;;11.57;83.08
37852;BME280;23691;52.486;4.650;2023-03-23T08:18:45;100156.41;;;11.62;82.92
37852;BME280;23691;52.486;4.650;2023-03-23T08:21:11;100155.25;;;11.71;82.75
37852;BME280;23691;52.486;4.650;2023-03-23T08:23:38;100159.69;;;11.79;82.43
37852;BME280;23691;52.486;4.650;2023-03-23T08:26:07;100159.09;;;11.83;82.14
37852;BME280;23691;52.486;4.650;2023-03-23T08:28:34;100165.63;;;11.89;82.12
37852;BME280;23691;52.486;4.650;2023-03-23T08:30:59;100160.69;;;11.93;81.83
37852;BME280;23691;52.486;4.650;2023-03-23T08:33:25;100164.28;;;12.00;81.62
37852;BME280;23691;52.486;4.650;2023-03-23T08:35:57;100173.41;;;12.06;81.16
37852;BME280;23691;52.486;4.650;2023-03-23T08:38:23;100165.03;;;12.15;81.47
37852;BME280;23691;52.486;4.650;2023-03-23T08:40:49;100159.56;;;12.23;80.85
37852;BME280;23691;52.486;4.650;2023-03-23T08:43:16;100164.78;;;12.32;80.74
37852;BME280;23691;52.486;4.650;2023-03-23T08:45:42;100175.94;;;12.35;80.64
37852;BME280;23691;52.486;4.650;2023-03-23T08:48:07;100165.69;;;12.39;80.45
37852;BME280;23691;52.486;4.650;2023-03-23T08:50:34;100168.44;;;12.45;80.39
37852;BME280;23691;52.486;4.650;2023-03-23T08:53:00;100168.88;;;12.49;79.87
37852;BME280;23691;52.486;4.650;2023-03-23T08:55:26;100166.59;;;12.53;79.76
37852;BME280;23691;52.486;4.650;2023-03-23T08:57:52;100173.25;;;12.57;79.71
37852;BME280;23691;52.486;4.650;2023-03-23T09:00:19;100160.91;;;12.62;79.53
37852;BME280;23691;52.486;4.650;2023-03-23T09:02:48;100176.25;;;12.68;79.26
37852;BME280;23691;52.486;4.650;2023-03-23T09:05:15;100177.97;;;12.76;79.19
37852;BME280;23691;52.486;4.650;2023-03-23T09:07:46;100182.50;;;12.76;78.96
37852;BME280;23691;52.486;4.650;2023-03-23T09:10:13;100195.13;;;12.82;78.67
37852;BME280;23691;52.486;4.650;2023-03-23T09:12:40;100182.16;;;12.85;78.25
37852;BME280;23691;52.486;4.650;2023-03-23T09:15:08;100177.69;;;12.93;78.08
37852;BME280;23691;52.486;4.650;2023-03-23T09:17:38;100190.06;;;12.94;77.60
37852;BME280;23691;52.486;4.650;2023-03-23T09:20:05;100176.22;;;12.97;77.59
37852;BME280;23691;52.486;4.650;2023-03-23T09:22:36;100190.94;;;13.01;77.30
37852;BME280;23691;52.486;4.650;2023-03-23T09:25:01;100183.06;;;12.99;76.74
37852;BME280;23691;52.486;4.650;2023-03-23T09:27:27;100180.00;;;13.02;76.70
37852;BME280;23691;52.486;4.650;2023-03-23T09:29:53;100181.06;;;13.08;76.60
37852;BME280;23691;52.486;4.650;2023-03-23T09:32:18;100190.44;;;13.19;76.56
37852;BME280;23691;52.486;4.650;2023-03-23T09:34:45;100195.44;;;13.22;76.22
37852;BME280;23691;52.486;4.650;2023-03-23T09:37:10;100188.81;;;13.24;75.85
37852;BME280;23691;52.486;4.650;2023-03-23T09:39:38;100179.91;;;13.24;75.64
37852;BME280;23691;52.486;4.650;2023-03-23T09:42:23;100191.19;;;13.34;75.59
37852;BME280;23691;52.486;4.650;2023-03-23T09:45:11;100186.03;;;13.39;75.29
37852;BME280;23691;52.486;4.650;2023-03-23T09:50:34;100194.94;;;13.40;74.69
37852;BME280;23691;52.486;4.650;2023-03-23T09:55:35;100222.03;;;13.45;74.48
37852;BME280;23691;52.486;4.650;2023-03-23T09:58:24;100216.25;;;13.48;74.18
37852;BME280;23691;52.486;4.650;2023-03-23T10:01:06;100222.06;;;13.51;74.27
37852;BME280;23691;52.486;4.650;2023-03-23T10:03:41;100218.75;;;13.49;73.83
37852;BME280;23691;52.486;4.650;2023-03-23T10:06:14;100225.59;;;13.52;73.91
37852;BME280;23691;52.486;4.650;2023-03-23T10:08:57;100230.78;;;13.60;73.86
37852;BME280;23691;52.486;4.650;2023-03-23T10:11:41;100228.72;;;13.62;73.71
37852;BME280;23691;52.486;4.650;2023-03-23T10:16:40;100232.06;;;13.64;73.06
37852;BME280;23691;52.486;4.650;2023-03-23T10:19:45;100236.38;;;13.65;72.60
37852;BME280;23691;52.486;4.650;2023-03-23T10:22:12;100230.38;;;13.57;72.89
37852;BME280;23691;52.486;4.650;2023-03-23T10:24:43;100225.63;;;13.65;73.00
37852;BME280;23691;52.486;4.650;2023-03-23T10:27:38;100234.81;;;13.84;72.66
37852;BME280;23691;52.486;4.650;2023-03-23T10:30:38;100228.63;;;13.90;72.50
37852;BME280;23691;52.486;4.650;2023-03-23T10:33:21;100236.09;;;13.95;72.43
37852;BME280;23691;52.486;4.650;2023-03-23T10:38:25;100228.47;;;13.99;72.08
37852;BME280;23691;52.486;4.650;2023-03-23T10:40:59;100215.44;;;14.02;72.14
37852;BME280;23691;52.486;4.650;2023-03-23T10:43:25;100231.34;;;13.97;71.60
37852;BME280;23691;52.486;4.650;2023-03-23T10:46:01;100229.31;;;13.99;71.47
37852;BME280;23691;52.486;4.650;2023-03-23T10:48:30;100231.16;;;14.05;71.72
37852;BME280;23691;52.486;4.650;2023-03-23T10:51:00;100250.44;;;14.09;71.16
37852;BME280;23691;52.486;4.650;2023-03-23T10:53:44;100250.25;;;14.17;71.45
37852;BME280;23691;52.486;4.650;2023-03-23T10:56:27;100257.69;;;14.15;71.11
37852;BME280;23691;52.486;4.650;2023-03-23T10:58:53;100245.88;;;14.09;71.01
37852;BME280;23691;52.486;4.650;2023-03-23T11:01:29;100247.56;;;14.17;70.98
37852;BME280;23691;52.486;4.650;2023-03-23T11:03:55;100243.84;;;14.25;70.84
37852;BME280;23691;52.486;4.650;2023-03-23T11:06:27;100259.19;;;14.31;70.74
37852;BME280;23691;52.486;4.650;2023-03-23T11:09:03;100258.78;;;14.34;70.48
37852;BME280;23691;52.486;4.650;2023-03-23T11:11:37;100245.13;;;14.42;70.25
37852;BME280;23691;52.486;4.650;2023-03-23T11:14:19;100269.38;;;14.49;69.84
37852;BME280;23691;52.486;4.650;2023-03-23T11:16:50;100268.34;;;14.50;69.43
37852;BME280;23691;52.486;4.650;2023-03-23T11:19:31;100258.66;;;14.55;69.30
37852;BME280;23691;52.486;4.650;2023-03-23T11:24:31;100263.66;;;14.65;68.90
37852;BME280;23691;52.486;4.650;2023-03-23T11:26:58;100265.50;;;14.71;68.91
37852;BME280;23691;52.486;4.650;2023-03-23T11:29:26;100263.88;;;14.77;68.90
37852;BME280;23691;52.486;4.650;2023-03-23T11:32:03;100251.41;;;14.76;68.40
37852;BME280;23691;52.486;4.650;2023-03-23T11:34:35;100253.91;;;14.77;68.68
37852;BME280;23691;52.486;4.650;2023-03-23T11:37:05;100255.78;;;14.77;68.48
37852;BME280;23691;52.486;4.650;2023-03-23T11:48:18;100253.91;;;15.11;67.94
37852;BME280;23691;52.486;4.650;2023-03-23T11:50:59;100243.56;;;15.14;67.79
37852;BME280;23691;52.486;4.650;2023-03-23T11:53:35;100253.91;;;15.11;67.49
37852;BME280;23691;52.486;4.650;2023-03-23T11:58:50;100258.91;;;15.14;67.62
37852;BME280;23691;52.486;4.650;2023-03-23T12:07:07;100294.94;;;15.13;66.24
37852;BME280;23691;52.486;4.650;2023-03-23T12:09:51;100271.34;;;15.01;66.26
37852;BME280;23691;52.486;4.650;2023-03-23T12:12:27;100272.13;;;15.09;65.91
37852;BME280;23691;52.486;4.650;2023-03-23T12:17:55;100264.25;;;15.34;65.76
37852;BME280;23691;52.486;4.650;2023-03-23T12:20:32;100263.19;;;15.41;65.09
37852;BME280;23691;52.486;4.650;2023-03-23T12:25:43;100261.72;;;15.59;64.48
37852;BME280;23691;52.486;4.650;2023-03-23T12:31:20;100270.41;;;15.61;63.88
37852;BME280;23691;52.486;4.650;2023-03-23T12:34:06;100254.25;;;15.61;63.35
37852;BME280;23691;52.486;4.650;2023-03-23T12:43:03;100248.00;;;15.74;63.35
37852;BME280;23691;52.486;4.650;2023-03-23T12:48:23;100252.50;;;15.86;63.08
37852;BME280;23691;52.486;4.650;2023-03-23T12:53:57;100262.22;;;15.94;62.94
37852;BME280;23691;52.486;4.650;2023-03-23T12:56:38;100261.75;;;16.10;62.87
37852;BME280;23691;52.486;4.650;2023-03-23T13:01:46;100266.94;;;16.12;62.13
37852;BME280;23691;52.486;4.650;2023-03-23T13:04:20;100262.56;;;16.11;62.39
37852;BME280;23691;52.486;4.650;2023-03-23T13:06:47;100263.59;;;16.17;62.37
37852;BME280;23691;52.486;4.650;2023-03-23T13:12:08;100270.06;;;16.09;61.71
37852;BME280;23691;52.486;4.650;2023-03-23T13:17:46;100268.88;;;15.98;62.14
37852;BME280;23691;52.486;4.650;2023-03-23T13:26:02;100281.97;;;15.88;62.03
37852;BME280;23691;52.486;4.650;2023-03-23T13:28:44;100267.69;;;15.67;62.28
37852;BME280;23691;52.486;4.650;2023-03-23T13:31:16;100267.09;;;15.65;62.64
37852;BME280;23691;52.486;4.650;2023-03-23T13:33:48;100263.34;;;15.60;62.82
37852;BME280;23691;52.486;4.650;2023-03-23T13:36:17;100265.66;;;15.63;62.67
37852;BME280;23691;52.486;4.650;2023-03-23T13:38:50;100261.50;;;15.60;62.20
37852;BME280;23691;52.486;4.650;2023-03-23T13:41:18;100264.59;;;15.64;62.26
37852;BME280;23691;52.486;4.650;2023-03-23T13:43:45;100260.88;;;15.72;61.80
37852;BME280;23691;52.486;4.650;2023-03-23T13:46:12;100263.97;;;15.75;61.97
37852;BME280;23691;52.486;4.650;2023-03-23T13:48:43;100267.00;;;15.99;61.62
37852;BME280;23691;52.486;4.650;2023-03-23T13:54:05;100258.47;;;16.40;60.78
37852;BME280;23691;52.486;4.650;2023-03-23T13:56:39;100249.88;;;16.57;60.56
37852;BME280;23691;52.486;4.650;2023-03-23T13:59:34;100236.72;;;16.67;60.25
37852;BME280;23691;52.486;4.650;2023-03-23T14:02:36;100236.09;;;16.65;60.18
37852;BME280;23691;52.486;4.650;2023-03-23T14:05:30;100229.88;;;16.64;60.65
37852;BME280;23691;52.486;4.650;2023-03-23T14:10:31;100244.09;;;16.46;59.76
37852;BME280;23691;52.486;4.650;2023-03-23T14:12:59;100241.78;;;16.18;60.54
37852;BME280;23691;52.486;4.650;2023-03-23T14:15:28;100243.50;;;16.13;60.22
37852;BME280;23691;52.486;4.650;2023-03-23T14:17:53;100233.94;;;16.10;60.82
37852;BME280;23691;52.486;4.650;2023-03-23T14:20:31;100229.81;;;16.07;61.09
37852;BME280;23691;52.486;4.650;2023-03-23T14:22:58;100226.47;;;16.12;60.98
37852;BME280;23691;52.486;4.650;2023-03-23T14:25:28;100223.34;;;16.15;60.67
37852;BME280;23691;52.486;4.650;2023-03-23T14:27:55;100209.41;;;16.18;60.62